Bow Mar, Colorado
Current Conditions -  °F | °C
As of 2:53 AM on Saturday 01 Nov 2014 (Local Time) from KAPA Reporting Station
Few Clouds Few Clouds  
Wind Chill: 41°   Ceiling: Unl
Heat Index: 44°   Visibility: 10mi
Dew Point: 26°   Wind: 6mph
Humidity: 49%   Direction: 110°ESE
Pressure: 30.01"   Gusts: NA
Location:  39.5977°N, 105.071°W
Report Text: KAPA 010853Z 11005KT 10SM FEW200 07/M03 A3001 RMK AO2 SLP136 T00671033 56013
Loading
Personal Weather Stations






























Interactive Weather Map
Tropical Storm Tracking
New forecast layout! Learn more

10-Day Weather Forecast

Advertisements
Track Severe Weather on mobile